• Join FlightAware (Why Join?)
  • Login
  • US Flag 
01:17AM EDT


 

Airport Tracker/Info


-or-


 

Live Flight TrackerFlight Track Log ✈ SWA2436 ✈ 08-Apr-2013 ✈ KDEN - KMHT

Flight Track Log - Related Links

Times and Time Zones

All times are in EDT time to prevent confusion due to time zone crossing. See the SWA2436 flight status page for this flight to view local times or setup timezone preferences in your user account.

Time Position Orientation Groundspeed Altitude Reporting Facility
EDT Latitude Longitude Course Direction KTS MPH feet Rate Location/Type
01:13PM 39.8000 -104.6333 90° East 189 217 7,400  Level Denver TRACON
01:15PM 39.7667 -104.5500 117° Southeast 269 310 9,200 1,800 Climbing Denver TRACON
01:16PM 39.8000 -104.4500 67° East 321 369 11,200 2,520 Climbing Denver TRACON
01:17PM 39.8167 -104.3167 81° East 352 405 14,300 3,000 Climbing Denver TRACON
01:17PM 39.8228 -104.2914 73° East 355 409 15,000 3,060 Climbing Denver Center
01:18PM 39.8400 -104.1522 81° East 365 420 18,300 2,700 Climbing Denver Center
01:19PM 39.8833 -103.6463 90° East  Level FlightAware Approximate
01:19PM 39.8575 -104.0122 81° East 389 448 20,700  Level Denver Center
01:20PM 39.8750 -103.8525 82° East 413 475 22,900 1,860 Climbing Denver Center
01:21PM 39.8917 -103.6619 83° East 417 480 25,000 1,800 Climbing Denver Center
01:22PM 39.9117 -103.4967 81° East 452 520 26,700 1,560 Climbing Denver Center
01:23PM 39.9292 -103.3247 82° East 473 544 28,300 1,560 Climbing Denver Center
01:24PM 39.9494 -103.1500 81° East 484 557 30,000 1,620 Climbing Denver Center
01:25PM 39.9689 -102.9706 82° East 495 570 31,700 1,740 Climbing Denver Center
01:26PM 39.9889 -102.7944 82° East 488 562 33,700 1,620 Climbing Denver Center
01:27PM 40.0097 -102.5875 82° East 492 566 35,100 1,140 Climbing Denver Center
01:28PM 40.0281 -102.4172 82° East 496 571 36,100 840 Climbing Denver Center
01:29PM 40.0469 -102.2428 82° East 506 582 36,900 420 Climbing Denver Center
01:30PM 40.0667 -102.0381 83° East 510 587 37,000  Climbing Denver Center
01:31PM 40.0836 -101.8664 83° East 501 577 37,000  Level Denver Center
01:32PM 40.1044 -101.6664 82° East 500 575 37,000  Level Denver Center
01:33PM 40.1197 -101.4897 83° East 509 586 37,000  Level Denver Center
01:35PM 40.1506 -101.2892 79° East 510 587 37,000  Level Denver Center
01:36PM 40.1844 -101.1186 75° East 509 586 37,000  Level Denver Center
01:37PM 40.2222 -100.9194 76° East 508 585 37,000  Level Denver Center
01:38PM 40.2553 -100.7492 76° East 508 585 37,000  Level Denver Center
01:39PM 40.2972 -100.5233 76° East 505 581 37,000  Level Denver Center
01:40PM 40.3239 -100.3822 76° East 504 580 37,000  Level Denver Center
01:41PM 40.3653 -100.1558 76° East 504 580 37,000  Level Denver Center
01:42PM 40.3967 -99.9844 76° East 505 581 37,000  Level Denver Center
01:43PM 40.4286 -99.8058 77° East 506 582 37,000  Level Denver Center
01:44PM 40.4664 -99.5872 77° East 512 589 37,000  Level Denver Center
01:45PM 40.4997 -99.4067 76° East 512 589 37,000  Level Denver Center
01:46PM 40.5311 -99.2231 77° East 516 594 37,000  Level Denver Center
01:47PM 40.5569 -99.0767 77° East 517 595 37,000  Level Minneapolis Center
01:48PM 40.5886 -98.8953 77° East 515 593 37,000  Level Minneapolis Center
01:49PM 40.6194 -98.7131 77° East 514 592 37,000  Level Minneapolis Center
01:50PM 40.6431 -98.5681 78° East 513 590 37,000  Level Minneapolis Center
01:51PM 40.6794 -98.3519 77° East 510 587 37,000  Level Minneapolis Center
01:52PM 40.7086 -98.1706 78° East 509 586 37,000  Level Minneapolis Center
01:53PM 40.7442 -97.9531 78° East 509 586 37,000  Level Minneapolis Center
01:54PM 40.7733 -97.7708 78° East 510 587 37,000  Level Minneapolis Center
01:55PM 40.8031 -97.5872 78° East 512 589 37,000  Level Minneapolis Center
01:56PM 40.8314 -97.4036 78° East 512 589 37,000  Level Minneapolis Center
01:57PM 40.8619 -97.2017 79° East 515 593 37,000  Level Minneapolis Center
01:58PM 40.8911 -97.0158 78° East 516 594 37,000  Level Minneapolis Center
01:59PM 40.9211 -96.8297 78° East 519 597 37,000  Level Minneapolis Center
02:00PM 40.9481 -96.6439 79° East 518 596 37,000  Level Minneapolis Center
02:01PM 40.9750 -96.4575 79° East 518 596 37,000  Level Minneapolis Center
02:02PM 41.0028 -96.2744 79° East 514 592 37,000  Level Minneapolis Center
02:03PM 41.0342 -96.0558 79° East 511 588 37,000  Level Minneapolis Center
02:04PM 41.0606 -95.8753 79° East 508 585 37,000  Level Minneapolis Center
02:05PM 41.0856 -95.6931 80° East 508 585 37,000  Level Minneapolis Center
02:06PM 41.1108 -95.5103 80° East 509 586 37,000  Level Minneapolis Center
02:07PM 41.1361 -95.3319 79° East 500 575 37,000  Level Minneapolis Center
02:08PM 41.1653 -95.1175 80° East 496 571 37,000  Level Minneapolis Center
02:09PM 41.1894 -94.9403 80° East 492 566 37,000  Level Minneapolis Center
02:10PM 41.2122 -94.7633 80° East 489 563 37,000  Level Minneapolis Center
02:11PM 41.2344 -94.5842 81° East 492 566 37,000  Level Minneapolis Center
02:13PM 41.2583 -94.4056 80° East 492 566 37,000  Level Minneapolis Center
02:14PM 41.2819 -94.2236 80° East 497 572 37,000  Level Minneapolis Center
02:15PM 41.3075 -94.0169 81° East 499 574 37,000  Level Minneapolis Center
02:16PM 41.3300 -93.8358 81° East 500 575 37,000  Level Minneapolis Center
02:17PM 41.3525 -93.6533 81° East 502 578 37,000  Level Minneapolis Center
02:18PM 41.3764 -93.4681 80° East 507 583 37,000  Level Minneapolis Center
02:19PM 41.3994 -93.2828 81° East 510 587 37,000  Level Minneapolis Center
02:20PM 41.4206 -93.0972 81° East 509 586 37,000  Level Minneapolis Center
02:21PM 41.4469 -92.8747 81° East 509 586 37,000  Level Minneapolis Center
02:22PM 41.4681 -92.6864 81° East 512 589 37,000  Level Minneapolis Center
02:22PM 41.4764 -92.6100 82° East 513 590 37,000  Level Chicago Center
02:23PM 41.4992 -92.4092 81° East 517 595 37,000  Level Chicago Center
02:24PM 41.5197 -92.2231 82° East 514 592 37,000  Level Chicago Center
02:25PM 41.5403 -92.0350 82° East 516 594 37,000  Level Chicago Center
02:26PM 41.5606 -91.8458 82° East 521 600 37,000  Level Chicago Center
02:27PM 41.5847 -91.6192 82° East 520 598 37,000  Level Chicago Center
02:28PM 41.6042 -91.4278 82° East 525 604 37,000  Level Chicago Center
02:29PM 41.6239 -91.2339 82° East 531 611 37,000  Level Chicago Center
02:30PM 41.6431 -91.0406 82° East 531 611 37,000  Level Chicago Center
02:32PM 41.6611 -90.8447 83° East 535 616 37,000  Level Chicago Center
02:33PM 41.6842 -90.6100 82° East 538 619 37,000  Level Chicago Center
02:34PM 41.7033 -90.4064 83° East 533 613 37,000  Level Chicago Center
02:35PM 41.7211 -90.2103 83° East 531 611 37,000  Level Chicago Center
02:36PM 41.7386 -90.0119 83° East 534 615 37,000  Level Chicago Center
02:37PM 41.7564 -89.8128 83° East 535 616 37,000  Level Chicago Center
02:38PM 41.7742 -89.6150 83° East 533 613 37,000  Level Chicago Center
02:39PM 41.7933 -89.3856 84° East 535 616 37,000  Level Chicago Center
02:40PM 41.8097 -89.1889 84° East 533 613 37,000  Level Chicago Center
02:41PM 41.8253 -88.9922 84° East 532 612 37,000  Level Chicago Center
02:42PM 41.8403 -88.7956 84° East 531 611 37,000  Level Chicago Center
02:43PM 41.8556 -88.5989 84° East 530 610 37,000  Level Chicago Center
02:44PM 41.8739 -88.3656 84° East 525 604 37,000  Level Chicago Center
02:45PM 41.8881 -88.1711 84° East 523 602 37,000  Level Chicago Center
02:46PM 41.9022 -87.9758 84° East 523 602 37,000  Level Chicago Center
02:47PM 41.9156 -87.7819 85° East 522 601 37,000  Level Chicago Center
02:48PM 41.9281 -87.5864 85° East 523 602 37,000  Level Chicago Center
02:49PM 41.9411 -87.3906 85° East 526 605 37,000  Level Chicago Center
02:50PM 41.9542 -87.1939 85° East 530 610 37,000  Level Chicago Center
02:51PM 41.9683 -86.9592 85° East 529 609 37,000  Level Chicago Center
02:52PM 41.9800 -86.7653 85° East 524 603 37,000 60 Level Chicago Center
02:53PM 41.9919 -86.5797 85° East 522 601 37,200 960 Climbing Chicago Center
02:54PM 42.0033 -86.3875 85° East 520 598 39,000 840 Climbing Chicago Center
02:55PM 42.0131 -86.2039 86° East 499 574 39,000  Level Chicago Center
02:56PM 42.0256 -85.9794 86° East 501 577 39,000  Level Chicago Center
02:57PM 42.0347 -85.8117 86° East 494 568 39,000  Level Chicago Center
02:58PM 42.0436 -85.6289 86° East 494 568 39,000  Level Chicago Center
02:59PM 42.0553 -85.4064 86° East 499 574 39,000  Level Chicago Center
03:00PM 42.0644 -85.2197 86° East 503 579 39,000  Level Chicago Center
03:02PM 42.0772 -85.0011 85° East 492 566 39,000  Level Cleveland Center
03:03PM 42.1256 -84.8250 70° East 485 558 39,000  Level Cleveland Center
03:04PM 42.1736 -84.6489 70° East 485 558 39,000  Level Cleveland Center
03:05PM 42.2167 -84.4889 70° East 491 565 39,000  Level Cleveland Center
03:06PM 42.2681 -84.3181 68° East 496 571 39,000  Level Cleveland Center
03:07PM 42.3197 -84.1414 68° East 496 571 39,000  Level Cleveland Center
03:08PM 42.3606 -83.9639 73° East 496 571 39,000  Level Cleveland Center
03:09PM 42.3761 -83.7792 83° East 496 571 39,000  Level Cleveland Center
03:10PM 42.3922 -83.5717 84° East 491 565 39,000  Level Cleveland Center
03:11PM 42.4047 -83.4092 84° East 497 572 39,000  Level Cleveland Center
03:12PM 42.4200 -83.1961 84° East 502 578 39,000  Level Cleveland Center
03:13PM 42.4344 -83.0139 84° East 502 578 39,000  Level Cleveland Center
03:14PM 42.4486 -82.8286 84° East 496 571 39,000  Level Cleveland Center
03:15PM 42.4628 -82.6378 84° East 496 571 39,000  Level Cleveland Center
03:16PM 42.4742 -82.4467 85° East 496 571 39,000  Level Cleveland Center
03:17PM 42.4875 -82.2614 84° East 496 571 39,000  Level Cleveland Center
03:18PM 42.5006 -82.0786 84° East 496 571 39,000  Level Cleveland Center
03:19PM 42.5111 -81.8900 86° East 496 571 39,000  Level Cleveland Center
03:20PM 42.5256 -81.7044 84° East 496 571 39,000  Level Cleveland Center
03:21PM 42.5378 -81.5158 85° East 502 578 39,000  Level Cleveland Center
03:22PM 42.5494 -81.3328 85° East 494 568 39,000  Level Cleveland Center
03:23PM 42.5589 -81.1583 86° East 500 575 39,000  Level Cleveland Center
03:24PM 42.5700 -80.9722 85° East 500 575 39,000  Level Cleveland Center
03:25PM 42.5789 -80.7833 86° East 495 570 39,000  Level Cleveland Center
03:26PM 42.5894 -80.5944 86° East 500 575 39,000  Level Cleveland Center
03:27PM 42.5997 -80.4056 86° East 500 575 39,000  Level Cleveland Center
03:28PM 42.6097 -80.2164 86° East 500 575 39,000  Level Cleveland Center
03:29PM 42.6214 -80.0106 86° East 493 567 39,000  Level Cleveland Center
03:30PM 42.6289 -79.8439 86° East 498 573 39,000  Level Cleveland Center
03:31PM 42.6378 -79.6575 86° East 498 573 39,000  Level Cleveland Center
03:32PM 42.6467 -79.4739 86° East 498 573 39,000  Level Cleveland Center
03:33PM 42.6550 -79.2875 86° East 498 573 39,000  Level Cleveland Center
03:34PM 42.6611 -79.0981 87° East 498 573 39,000  Level Cleveland Center
03:35PM 42.6692 -78.9114 87° East 498 573 39,000  Level Cleveland Center
03:36PM 42.6744 -78.7250 88° East 498 573 39,000  Level Cleveland Center
03:37PM 42.6819 -78.5383 87° East 498 573 39,000  Level Cleveland Center
03:38PM 42.6886 -78.3489 87° East 498 573 39,000  Level Cleveland Center
03:39PM 42.6953 -78.1594 87° East 498 573 39,000  Level Cleveland Center
03:40PM 42.6997 -77.9728 88° East 498 573 39,000  Level Cleveland Center
03:41PM 42.7033 -77.7803 88° East 498 573 39,000  Level Cleveland Center
03:43PM 42.7144 -77.4175 87° East 506 582 39,000  Level Boston Center
03:44PM 42.7183 -77.2311 88° East 500 575 39,000  Level Boston Center
03:45PM 42.7222 -77.0392 88° East 495 570 39,000  Level Boston Center
03:46PM 42.7275 -76.8528 88° East 495 570 39,000  Level Boston Center
03:46PM 42.7303 -76.6664 89° East 495 570 39,000  Level Boston Center
03:47PM 42.7331 -76.4772 89° East 495 570 39,000  Level Boston Center
03:48PM 42.7375 -76.2908 88° East 495 570 39,000  Level Boston Center
03:50PM 42.7408 -76.1269 88° East 495 570 39,000  Level Boston Center
03:51PM 42.7425 -75.9403 89° East 495 570 39,000  Level Boston Center
03:52PM 42.7439 -75.7539 89° East 495 570 39,000  Level Boston Center
03:53PM 42.7428 -75.5728 90° East 495 570 39,000 -360 Level Boston Center
03:53PM 42.7478 -75.3892 88° East 490 564 38,400 -1,500 Descending Boston Center
03:54PM 42.7481 -75.2053 90° East 484 557 36,100 -2,340 Descending Boston Center
03:56PM 42.7483 -75.0217 90° East 484 557 33,700 -2,520 Descending Boston Center
03:56PM 42.7486 -74.8153 90° East 490 564 31,200 -2,280 Descending Boston Center
03:57PM 42.7503 -74.6369 89° East 485 558 29,200 -1,140 Descending Boston Center
03:59PM 42.7492 -74.4644 90° East 471 542 29,000 -120 Descending Boston Center
04:00PM 42.7500 -74.2978 90° East 449 517 29,000 -720 Level Boston Center
04:00PM 42.7483 -74.1336 91° East 443 510 27,700 -1,740 Descending Boston Center
04:01PM 42.7467 -73.9667 91° East 438 504 25,700 -1,500 Descending Boston Center
04:02PM 42.7464 -73.8056 90° East 438 504 24,700 -900 Descending Boston Center
04:03PM 42.7544 -73.6644 86° East 427 491 23,900 -900 Descending Boston Center
04:05PM 42.7600 -73.5119 87° East 407 468 23,000 -780 Descending Boston Center
04:05PM 42.7656 -73.3592 87° East 402 463 22,400 -840 Descending Boston Center
04:06PM 42.7708 -73.2094 87° East 402 463 21,400 -1,020 Descending Boston Center
04:07PM 42.7758 -73.0625 87° East 397 457 20,400 -1,320 Descending Boston Center
04:08PM 42.7767 -72.9181 90° East 397 457 18,800 -1,920 Descending Boston Center
04:09PM 42.7833 -72.7739 86° East 384 442 16,600 -2,040 Descending Boston Center
04:10PM 42.7878 -72.6183 88° East 384 442 14,800 -1,440 Descending Boston Center
04:11PM 42.7900 -72.4883 89° East 373 429 13,700 -1,080 Descending Boston Center
04:12PM 42.7942 -72.3581 87° East 347 399 12,700 -1,020 Descending Boston Center
04:13PM 42.7983 -72.2336 87° East 341 392 11,700 -1,080 Descending Boston Center
04:14PM 42.8083 -72.1061 84° East 333 383 10,600 -1,080 Descending Boston Center
04:15PM 42.8017 -71.9903 94° East 314 361 9,600 -1,140 Descending Boston Center
04:17PM 42.7928 -71.8600 95° East 297 342 8,200 -1,080 Descending Boston Center
04:18PM 42.7861 -71.7611 95° East 291 335 7,300 -1,020 Descending Boston Center
04:19PM 42.7686 -71.6453 102° East 286 329 6,200 -1,080 Descending Boston Center
04:20PM 42.7514 -71.5550 105° East 280 322 5,200 -900 Descending Boston Center
04:21PM 42.7339 -71.4536 103° East 268 308 4,500 -660 Descending Boston Center
04:22PM 42.7603 -71.3881 61° Northeast 205 236 4,000 -900 Descending Boston Center
04:23PM 42.8122 -71.3617 20° North 173 199 2,700 -1,140 Descending Boston Center
04:24PM 42.8519 -71.3867 335° Northwest 160 184 1,800 -840 Descending Boston Center
04:25PM 42.8939 -71.4086 339° North 144 166 900 -600 Descending Boston Center
04:26PM 42.9275 -71.4306 334° Northwest 138 159 500 4,080 Descending Boston Center
04:27PM 42.9650 -71.4528 337° Northwest 138 159 9,000 8,760 Climbing Boston Center